Time;durP1;ratioP1;P1;durP2;ratioP2;P2;SDS_P1;SDS_P2;PMS_P1;PMS_P2;Temp;Humidity;BMP_temperature;BMP_pressure;BME280_temperature;BME280_humidity;BME280_pressure;Samples;Min_cycle;Max_cycle;Signal;HPM_P1;HPM_P2
2022/12/23 00:00:11;;;;;;;16.35;8.40;;;10.00;99.90;;;;;;5034353;28;20048;-85
2022/12/23 00:02:37;;;;;;;13.13;7.75;;;10.00;99.90;;;;;;5033208;28;20200;-84
2022/12/23 00:05:04;;;;;;;13.32;8.23;;;10.10;99.90;;;;;;5035369;28;20093;-82
2022/12/23 00:07:30;;;;;;;12.00;7.65;;;10.00;99.90;;;;;;5033299;28;20095;-81
2022/12/23 00:09:56;;;;;;;13.57;8.15;;;10.10;99.90;;;;;;5034058;28;20091;-82
2022/12/23 00:15:06;;;;;;;16.35;7.30;;;10.00;99.90;;;;;;5033831;28;20056;-81
2022/12/23 00:17:39;;;;;;;12.85;7.82;;;10.00;99.90;;;;;;5032809;28;20294;-84
2022/12/23 00:20:06;;;;;;;16.60;7.60;;;10.10;99.90;;;;;;5033374;28;20078;-83
2022/12/23 00:25:15;;;;;;;14.23;7.75;;;10.00;99.90;;;;;;5033858;28;20475;-82
2022/12/23 00:27:41;;;;;;;13.30;7.35;;;10.00;99.90;;;;;;5032832;28;20037;-84
2022/12/23 00:30:09;;;;;;;12.07;7.53;;;10.00;99.90;;;;;;5033838;28;20043;-84
2022/12/23 00:32:35;;;;;;;12.98;7.78;;;10.00;99.90;;;;;;5032884;28;20108;-83
2022/12/23 00:35:00;;;;;;;12.00;7.57;;;9.90;99.90;;;;;;5034297;28;20476;-85
2022/12/23 00:37:29;;;;;;;11.75;6.65;;;9.90;99.90;;;;;;5033743;28;20049;-85
2022/12/23 00:42:54;;;;;;;13.02;6.82;;;10.10;99.90;;;;;;5033678;28;20084;-81
2022/12/23 00:45:20;;;;;;;10.60;6.80;;;9.90;99.90;;;;;;5032621;28;20034;-81
2022/12/23 00:50:34;;;;;;;11.45;6.63;;;10.10;99.90;;;;;;5033874;28;20119;-82
2022/12/23 00:53:03;;;;;;;10.25;6.18;;;10.10;99.90;;;;;;5033092;28;20443;-81
2022/12/23 00:55:29;;;;;;;13.52;6.18;;;10.10;99.90;;;;;;5033497;28;20049;-80
2022/12/23 00:57:55;;;;;;;9.25;6.15;;;10.10;99.90;;;;;;5032355;28;20048;-81
2022/12/23 01:05:35;;;;;;;9.90;6.40;;;10.10;99.90;;;;;;5032226;28;20029;-82
2022/12/23 01:05:59;;;;;;;9.25;5.68;;;10.10;99.90;;;;;;5033713;28;20107;-82
2022/12/23 01:08:25;;;;;;;8.60;5.18;;;10.30;99.90;;;;;;5033792;28;20108;-81
2022/12/23 01:10:51;;;;;;;9.77;5.28;;;10.20;99.90;;;;;;5032045;28;20128;-82
2022/12/23 01:13:17;;;;;;;8.35;5.40;;;10.20;99.90;;;;;;5032704;28;20450;-82
2022/12/23 01:15:43;;;;;;;9.88;4.47;;;10.20;99.90;;;;;;5033272;28;20026;-80
2022/12/23 01:18:09;;;;;;;8.00;4.32;;;10.20;99.90;;;;;;5031806;28;20030;-81
2022/12/23 01:20:38;;;;;;;7.30;4.32;;;10.20;99.90;;;;;;5031791;28;20036;-80
2022/12/23 01:23:04;;;;;;;10.15;5.40;;;10.30;99.90;;;;;;5032455;28;20068;-78
2022/12/23 01:25:30;;;;;;;7.25;4.50;;;10.40;99.90;;;;;;5032723;28;20037;-80
2022/12/23 01:27:56;;;;;;;8.27;4.78;;;10.30;99.90;;;;;;5032097;28;20118;-80
2022/12/23 01:30:21;;;;;;;5.90;4.03;;;10.30;99.90;;;;;;5033056;28;20064;-81
2022/12/23 01:32:47;;;;;;;6.47;4.10;;;10.40;99.90;;;;;;5032927;28;20159;-82
2022/12/23 01:35:13;;;;;;;6.28;4.45;;;10.40;99.90;;;;;;5032766;28;20009;-81
2022/12/23 01:37:39;;;;;;;7.60;3.80;;;10.40;99.90;;;;;;5033055;28;20068;-84
2022/12/23 01:40:06;;;;;;;6.43;3.60;;;10.50;99.90;;;;;;5033516;28;20037;-82
2022/12/23 01:42:44;;;;;;;7.20;4.13;;;10.50;99.90;;;;;;5032808;28;20038;-80
2022/12/23 01:45:17;;;;;;;7.72;4.25;;;10.50;99.90;;;;;;5032517;28;20021;-81
2022/12/23 01:47:48;;;;;;;7.40;3.60;;;10.50;99.90;;;;;;5031258;28;20025;-80
2022/12/23 01:50:27;;;;;;;5.93;4.03;;;10.60;99.90;;;;;;5032774;28;20451;-82
2022/12/23 01:52:57;;;;;;;5.97;3.58;;;10.50;99.90;;;;;;5031410;28;20037;-80
2022/12/23 01:55:25;;;;;;;6.57;4.00;;;10.60;99.90;;;;;;5031298;28;20168;-81
2022/12/23 01:57:53;;;;;;;5.20;3.58;;;10.60;99.90;;;;;;5032172;28;20052;-81
2022/12/23 02:05:48;;;;;;;6.20;3.95;;;10.70;99.90;;;;;;5032723;28;20478;-79
2022/12/23 02:11:22;;;;;;;6.57;4.40;;;10.80;99.90;;;;;;5032483;28;20072;-81
2022/12/23 02:16:55;;;;;;;8.48;4.30;;;10.80;99.90;;;;;;5031998;28;20044;-82
2022/12/23 02:19:56;;;;;;;6.38;4.38;;;10.90;99.90;;;;;;5032333;28;20033;-80
2022/12/23 02:22:52;;;;;;;7.68;4.00;;;10.90;99.90;;;;;;5031841;28;20041;-83
2022/12/23 02:25:38;;;;;;;5.53;3.88;;;10.90;99.90;;;;;;5031994;28;20032;-83
2022/12/23 02:28:23;;;;;;;7.07;4.30;;;10.90;99.90;;;;;;5030661;28;20376;-81
2022/12/23 02:31:08;;;;;;;5.70;4.13;;;10.90;99.90;;;;;;5032408;28;20041;-82
2022/12/23 02:33:57;;;;;;;5.10;3.92;;;10.90;99.90;;;;;;5031702;28;20040;-82
2022/12/23 02:36:28;;;;;;;7.07;4.45;;;11.00;99.90;;;;;;5017860;28;20038;-81
2022/12/23 02:39:19;;;;;;;5.40;4.10;;;11.00;99.90;;;;;;5011903;28;20345;-80
2022/12/23 02:41:57;;;;;;;5.40;3.85;;;11.10;99.90;;;;;;5011972;28;20345;-83
2022/12/23 02:44:35;;;;;;;4.97;3.60;;;11.10;99.90;;;;;;5012643;28;20352;-83
2022/12/23 02:47:08;;;;;;;5.05;4.22;;;11.10;99.90;;;;;;5010909;28;20120;-83
2022/12/23 02:49:38;;;;;;;5.95;4.28;;;11.10;99.90;;;;;;5010974;28;20084;-82
2022/12/23 02:52:10;;;;;;;4.93;4.03;;;11.10;99.90;;;;;;5011799;28;20037;-80
2022/12/23 02:54:42;;;;;;;6.53;4.28;;;11.20;99.90;;;;;;5011581;28;20026;-81
2022/12/23 02:57:11;;;;;;;6.00;4.50;;;11.10;99.90;;;;;;5010591;28;20045;-80
2022/12/23 02:59:45;;;;;;;6.05;4.43;;;11.20;99.90;;;;;;5011705;28;20058;-81
2022/12/23 03:02:10;;;;;;;7.72;4.97;;;11.30;99.90;;;;;;5011965;28;20069;-82
2022/12/23 03:04:37;;;;;;;5.97;4.50;;;11.30;99.90;;;;;;5010774;28;20061;-82
2022/12/23 03:07:03;;;;;;;6.93;5.30;;;11.20;99.90;;;;;;5011560;28;20489;-81
2022/12/23 03:10:04;;;;;;;9.38;5.30;;;11.20;99.90;;;;;;5011434;28;20040;-80
2022/12/23 03:12:56;;;;;;;6.90;4.80;;;11.30;99.90;;;;;;5006425;28;20053;-82
2022/12/23 03:15:32;;;;;;;8.25;5.88;;;11.30;99.90;;;;;;5011348;28;20050;-81
2022/12/23 03:18:16;;;;;;;7.50;5.70;;;11.30;99.90;;;;;;5011399;28;20038;-80
2022/12/23 03:20:55;;;;;;;9.15;5.97;;;11.30;99.90;;;;;;5010339;28;20026;-79
2022/12/23 03:23:39;;;;;;;7.88;5.70;;;11.30;99.90;;;;;;5011676;28;20325;-81
2022/12/23 03:26:17;;;;;;;8.93;6.10;;;11.30;99.90;;;;;;5009697;28;20079;-80
2022/12/23 03:28:48;;;;;;;9.48;6.60;;;11.30;99.90;;;;;;5011323;28;20121;-81
2022/12/23 03:31:23;;;;;;;10.07;6.70;;;11.30;99.90;;;;;;5011166;28;20030;-81
2022/12/23 03:33:58;;;;;;;9.65;7.28;;;11.30;99.90;;;;;;5011242;28;20044;-81
2022/12/23 03:36:30;;;;;;;8.75;6.30;;;11.40;99.90;;;;;;5015007;28;20464;-80
2022/12/23 03:38:57;;;;;;;9.38;6.63;;;11.40;99.90;;;;;;5014954;28;20131;-81
2022/12/23 03:41:38;;;;;;;9.95;6.75;;;11.40;99.90;;;;;;5016041;28;20018;-82
2022/12/23 03:44:16;;;;;;;10.10;6.78;;;11.50;99.90;;;;;;5014018;28;20316;-82
2022/12/23 03:46:59;;;;;;;8.82;6.03;;;11.50;99.90;;;;;;5015110;28;20034;-80
2022/12/23 03:49:38;;;;;;;10.20;6.57;;;11.50;99.90;;;;;;5013938;28;20467;-82
2022/12/23 03:52:14;;;;;;;8.93;5.93;;;11.40;99.90;;;;;;5013735;28;20040;-81
2022/12/23 03:54:47;;;;;;;8.90;6.15;;;11.40;99.90;;;;;;5013590;28;20042;-81
2022/12/23 03:57:13;;;;;;;9.07;6.05;;;11.50;99.90;;;;;;5014606;28;20364;-81
2022/12/23 03:59:44;;;;;;;9.35;6.15;;;11.50;99.90;;;;;;5014824;28;20018;-80
2022/12/23 04:02:43;;;;;;;9.15;5.75;;;11.30;99.90;;;;;;5014920;28;20436;-81
2022/12/23 04:05:20;;;;;;;9.38;6.18;;;11.40;99.90;;;;;;5014893;28;20033;-79
2022/12/23 04:08:21;;;;;;;9.20;5.80;;;11.40;99.90;;;;;;5014570;28;20030;-82
2022/12/23 04:10:48;;;;;;;8.02;5.10;;;11.40;99.90;;;;;;5013800;28;20124;-81
2022/12/23 04:13:13;;;;;;;8.68;5.47;;;11.40;99.90;;;;;;5013370;28;20113;-80
2022/12/23 04:15:41;;;;;;;7.45;5.03;;;11.50;99.90;;;;;;5013509;28;20096;-81
2022/12/23 04:18:08;;;;;;;6.65;5.07;;;11.50;99.90;;;;;;5014494;28;20030;-81
2022/12/23 04:20:33;;;;;;;6.95;4.72;;;11.70;99.90;;;;;;5013452;28;20422;-82
2022/12/23 04:22:59;;;;;;;5.95;3.83;;;11.30;99.90;;;;;;5014098;28;20026;-81
2022/12/23 04:25:24;;;;;;;7.00;4.40;;;11.30;99.90;;;;;;5013938;28;20034;-82
2022/12/23 04:27:50;;;;;;;6.07;4.32;;;11.40;99.90;;;;;;5012839;28;20067;-83
2022/12/23 04:30:17;;;;;;;8.38;4.00;;;11.30;99.90;;;;;;5013400;28;20092;-84
2022/12/23 04:32:43;;;;;;;6.22;4.07;;;11.30;99.90;;;;;;5012923;28;20026;-84
2022/12/23 04:35:09;;;;;;;6.13;4.25;;;11.30;99.90;;;;;;5014548;28;20033;-81
2022/12/23 04:37:35;;;;;;;8.50;5.32;;;11.30;99.90;;;;;;5013713;28;20164;-81
2022/12/23 04:40:01;;;;;;;7.07;4.65;;;11.30;99.90;;;;;;5013825;28;20121;-82
2022/12/23 04:42:27;;;;;;;7.00;4.57;;;11.20;99.90;;;;;;5013656;28;20037;-82
2022/12/23 04:44:52;;;;;;;8.57;4.75;;;11.10;99.90;;;;;;5013383;28;20026;-81
2022/12/23 04:47:18;;;;;;;7.35;4.97;;;11.10;99.90;;;;;;5013154;28;20489;-78
2022/12/23 04:49:44;;;;;;;9.07;4.95;;;11.10;99.90;;;;;;5013875;28;20468;-81
2022/12/23 04:52:10;;;;;;;9.18;5.22;;;11.00;99.90;;;;;;5013823;28;20311;-80
2022/12/23 04:54:35;;;;;;;9.00;5.43;;;11.10;99.90;;;;;;5013751;28;20040;-81
2022/12/23 04:57:01;;;;;;;8.65;5.28;;;10.90;99.90;;;;;;5013538;28;20443;-80
2022/12/23 04:59:27;;;;;;;8.05;5.43;;;11.00;99.90;;;;;;5014008;28;20022;-82
2022/12/23 05:01:52;;;;;;;10.73;6.05;;;11.00;99.90;;;;;;5012605;28;20337;-82
2022/12/23 05:04:18;;;;;;;11.82;6.60;;;11.00;99.90;;;;;;5013541;28;20022;-83
2022/12/23 05:06:44;;;;;;;9.50;5.60;;;10.90;99.90;;;;;;5013577;28;20125;-81
2022/12/23 05:09:09;;;;;;;11.68;7.00;;;10.90;99.90;;;;;;5012446;28;20022;-80
2022/12/23 05:11:35;;;;;;;10.70;6.70;;;10.90;99.90;;;;;;5013330;28;20034;-79
2022/12/23 05:14:01;;;;;;;14.52;7.28;;;10.80;99.90;;;;;;5013524;28;20042;-79
2022/12/23 05:16:27;;;;;;;12.45;6.97;;;10.90;99.90;;;;;;5012176;28;20092;-78
2022/12/23 05:18:53;;;;;;;12.57;7.32;;;10.90;99.90;;;;;;5013254;28;20038;-80
2022/12/23 05:21:18;;;;;;;14.23;7.80;;;10.90;99.90;;;;;;5013504;28;20356;-80
2022/12/23 05:23:44;;;;;;;15.85;9.00;;;10.80;99.90;;;;;;5013539;28;20101;-80
2022/12/23 05:26:10;;;;;;;13.32;7.78;;;10.80;99.90;;;;;;5013828;28;20474;-80
2022/12/23 05:28:36;;;;;;;17.08;8.80;;;10.80;99.90;;;;;;5013030;28;20137;-80
2022/12/23 05:31:06;;;;;;;12.98;7.55;;;10.80;99.90;;;;;;5012141;28;20368;-80
2022/12/23 05:33:33;;;;;;;15.93;8.88;;;10.80;99.90;;;;;;5012122;28;20380;-79
2022/12/23 05:35:59;;;;;;;16.98;9.15;;;10.90;99.90;;;;;;5013159;28;20372;-81
2022/12/23 05:38:25;;;;;;;13.98;8.02;;;10.80;99.90;;;;;;5012524;28;20025;-81
2022/12/23 05:40:52;;;;;;;15.57;8.23;;;10.60;99.90;;;;;;5013281;28;20050;-79
2022/12/23 05:43:18;;;;;;;15.07;8.32;;;10.80;99.90;;;;;;5012117;28;20384;-79
2022/12/23 05:45:44;;;;;;;17.15;8.85;;;10.90;99.90;;;;;;5012940;28;20037;-81
2022/12/23 05:48:10;;;;;;;15.93;8.32;;;10.90;99.90;;;;;;5012983;28;20061;-80
2022/12/23 05:50:37;;;;;;;16.50;8.68;;;11.00;99.90;;;;;;5012933;28;20084;-81
2022/12/23 05:53:03;;;;;;;14.07;8.63;;;11.00;99.90;;;;;;5012290;28;20109;-81
2022/12/23 05:55:29;;;;;;;19.58;9.00;;;10.90;99.90;;;;;;5024171;28;20428;-82
2022/12/23 05:57:55;;;;;;;12.07;7.15;;;10.70;99.90;;;;;;5011244;28;20054;-81
2022/12/23 06:00:21;;;;;;;15.85;7.78;;;10.80;99.90;;;;;;5013004;28;20034;-81
2022/12/23 06:02:46;;;;;;;16.25;9.02;;;10.80;99.90;;;;;;5013069;28;20034;-83
2022/12/23 06:05:12;;;;;;;15.10;8.82;;;10.90;99.90;;;;;;5012821;28;20529;-81
2022/12/23 06:07:39;;;;;;;14.88;8.70;;;11.10;99.90;;;;;;5014239;28;20044;-84
2022/12/23 06:10:07;;;;;;;12.23;7.53;;;10.90;99.90;;;;;;5012908;28;20066;-83
2022/12/23 06:12:33;;;;;;;14.13;7.72;;;10.90;99.90;;;;;;5014068;28;20483;-82
2022/12/23 06:14:59;;;;;;;15.27;7.82;;;10.80;99.90;;;;;;5013157;28;20053;-83
2022/12/23 06:17:25;;;;;;;13.05;7.65;;;10.90;99.90;;;;;;5012614;28;20364;-81
2022/12/23 06:19:51;;;;;;;13.60;7.47;;;10.80;99.90;;;;;;5012056;28;20030;-82
2022/12/23 06:22:16;;;;;;;15.20;8.50;;;10.80;99.90;;;;;;5012328;28;20029;-84
2022/12/23 06:24:43;;;;;;;14.13;8.27;;;10.80;99.90;;;;;;5012477;28;20030;-85
2022/12/23 06:27:09;;;;;;;13.38;8.05;;;10.90;99.90;;;;;;5012418;28;20044;-83
2022/12/23 06:29:34;;;;;;;14.60;8.10;;;10.70;99.90;;;;;;5011941;28;20448;-85
2022/12/23 06:32:00;;;;;;;12.82;7.45;;;11.00;99.90;;;;;;5013566;28;20029;-83
2022/12/23 06:34:26;;;;;;;12.98;7.63;;;10.70;99.90;;;;;;5013085;28;20104;-85
2022/12/23 06:36:52;;;;;;;15.57;8.02;;;10.80;99.90;;;;;;5033868;28;20064;-82
2022/12/23 06:39:17;;;;;;;13.45;7.68;;;10.70;99.90;;;;;;5033151;28;20470;-88
2022/12/23 06:41:43;;;;;;;13.07;7.78;;;10.70;99.90;;;;;;5034926;28;20025;-81
2022/12/23 06:44:09;;;;;;;12.93;7.75;;;10.80;99.90;;;;;;5031503;28;20450;-78
2022/12/23 06:46:35;;;;;;;13.25;8.25;;;10.80;99.90;;;;;;5032010;28;20091;-77
2022/12/23 06:49:01;;;;;;;15.43;8.25;;;10.70;99.90;;;;;;5034141;28;20367;-78
2022/12/23 06:51:27;;;;;;;14.43;8.27;;;10.70;99.90;;;;;;5032300;28;20047;-76
2022/12/23 06:53:52;;;;;;;14.77;8.40;;;10.60;99.90;;;;;;5031624;28;20025;-75
2022/12/23 06:56:19;;;;;;;17.02;8.23;;;10.60;99.90;;;;;;5034479;28;20444;-77
2022/12/23 06:58:44;;;;;;;15.40;7.80;;;10.60;99.90;;;;;;5030850;28;20034;-74
2022/12/23 07:01:10;;;;;;;15.95;8.25;;;10.40;99.90;;;;;;5032856;28;20121;-75
2022/12/23 07:03:36;;;;;;;12.95;7.30;;;10.50;99.90;;;;;;5030719;28;20033;-78
2022/12/23 07:06:02;;;;;;;16.83;9.07;;;10.60;99.90;;;;;;5030665;28;20030;-78
2022/12/23 07:08:27;;;;;;;14.18;8.35;;;10.60;99.90;;;;;;5031072;28;20021;-76
2022/12/23 07:11:02;;;;;;;13.63;7.97;;;10.50;99.90;;;;;;5030730;28;20030;-75
2022/12/23 07:13:28;;;;;;;13.68;7.72;;;10.50;99.90;;;;;;5030537;28;20509;-76
2022/12/23 07:15:54;;;;;;;15.38;7.82;;;10.50;99.90;;;;;;5030837;28;20025;-76
2022/12/23 07:18:21;;;;;;;15.48;7.72;;;10.60;99.90;;;;;;5030654;28;20036;-75
2022/12/23 07:20:47;;;;;;;12.88;7.68;;;10.50;99.90;;;;;;5030790;28;20040;-75
2022/12/23 07:23:13;;;;;;;14.63;7.40;;;10.40;99.90;;;;;;5031231;28;20021;-77
2022/12/23 07:25:39;;;;;;;12.57;7.45;;;10.40;99.90;;;;;;5031155;28;20042;-77
2022/12/23 07:28:04;;;;;;;13.57;7.38;;;10.50;99.90;;;;;;5029611;28;20026;-79
2022/12/23 07:30:30;;;;;;;12.68;7.32;;;10.50;99.90;;;;;;5030189;28;20044;-79
2022/12/23 07:32:56;;;;;;;13.25;7.00;;;10.60;99.90;;;;;;5029069;28;20036;-79
2022/12/23 07:35:22;;;;;;;14.38;6.68;;;10.50;99.90;;;;;;5030781;28;20026;-78
2022/12/23 07:37:52;;;;;;;13.07;7.38;;;10.50;99.90;;;;;;5030483;28;20057;-77
2022/12/23 07:40:18;;;;;;;13.55;7.40;;;10.50;99.90;;;;;;5030411;28;20034;-76
2022/12/23 07:42:46;;;;;;;13.10;7.82;;;10.50;99.90;;;;;;5032328;28;20422;-77
2022/12/23 07:45:12;;;;;;;11.70;6.78;;;10.60;99.90;;;;;;5037612;28;20037;-78
2022/12/23 07:47:38;;;;;;;12.23;6.88;;;10.50;99.90;;;;;;5039501;28;20368;-77
2022/12/23 07:50:04;;;;;;;12.13;6.65;;;10.50;99.90;;;;;;5040026;28;20105;-77
2022/12/23 07:52:30;;;;;;;12.25;6.57;;;10.50;99.90;;;;;;5037374;28;20038;-77
2022/12/23 07:54:55;;;;;;;13.20;6.95;;;10.50;99.90;;;;;;5040662;28;20029;-77
2022/12/23 07:57:23;;;;;;;12.45;6.80;;;10.50;99.90;;;;;;5034817;28;20037;-78
2022/12/23 07:59:48;;;;;;;12.52;7.10;;;10.60;99.90;;;;;;5033936;28;20467;-78
2022/12/23 08:02:14;;;;;;;14.50;7.97;;;10.60;99.90;;;;;;5031323;28;20128;-76
2022/12/23 08:04:40;;;;;;;16.13;8.23;;;10.60;99.90;;;;;;5035339;28;20049;-76
2022/12/23 08:07:06;;;;;;;14.40;7.75;;;10.60;99.90;;;;;;5032511;28;20029;-78
2022/12/23 08:09:31;;;;;;;15.30;8.48;;;10.50;99.90;;;;;;5029457;28;20084;-76
2022/12/23 08:11:57;;;;;;;16.50;8.52;;;10.60;99.90;;;;;;5029396;28;20483;-77
2022/12/23 08:14:23;;;;;;;14.82;8.45;;;10.50;99.90;;;;;;5030636;28;20487;-78
2022/12/23 08:16:49;;;;;;;17.45;9.45;;;10.50;99.90;;;;;;5030468;28;20464;-76
2022/12/23 08:19:14;;;;;;;17.13;9.13;;;10.50;99.90;;;;;;5029522;28;20030;-79
2022/12/23 08:21:40;;;;;;;16.50;9.30;;;10.60;99.90;;;;;;5034026;28;20037;-78
2022/12/23 08:24:06;;;;;;;20.90;10.13;;;10.60;99.90;;;;;;5033859;28;20087;-78
2022/12/23 08:26:31;;;;;;;21.27;11.10;;;10.60;99.90;;;;;;5033515;28;20021;-77
2022/12/23 08:28:58;;;;;;;23.67;11.93;;;10.60;99.90;;;;;;5034091;28;20021;-76
2022/12/23 08:31:27;;;;;;;20.95;11.15;;;10.60;99.90;;;;;;5033531;28;20025;-78
2022/12/23 08:33:55;;;;;;;21.05;10.93;;;10.60;99.90;;;;;;5033458;28;20051;-78
2022/12/23 08:36:23;;;;;;;20.98;10.88;;;10.60;99.90;;;;;;5033693;28;20355;-78
2022/12/23 08:38:51;;;;;;;22.17;10.77;;;10.50;99.90;;;;;;5032702;28;20049;-77
2022/12/23 08:41:21;;;;;;;25.65;11.82;;;10.60;99.90;;;;;;5034703;28;20024;-77
2022/12/23 08:43:47;;;;;;;26.38;12.40;;;10.50;99.90;;;;;;5033541;28;20040;-76
2022/12/23 08:46:13;;;;;;;28.48;12.90;;;10.50;99.90;;;;;;5033017;28;20030;-78
2022/12/23 08:48:39;;;;;;;27.17;12.18;;;10.40;99.90;;;;;;5032888;28;20033;-78
2022/12/23 08:51:07;;;;;;;27.52;11.82;;;10.60;99.90;;;;;;5034187;28;20128;-77
2022/12/23 08:53:34;;;;;;;25.98;12.13;;;10.60;99.90;;;;;;5034616;28;20026;-78
2022/12/23 08:56:02;;;;;;;28.23;12.55;;;10.60;99.90;;;;;;5033604;28;20112;-80
2022/12/23 08:58:28;;;;;;;;;;;10.60;99.90;;;;;;5032354;28;20066;-78
2022/12/23 09:00:54;;;;;;;28.45;12.68;;;10.60;99.90;;;;;;5032881;28;19917;-79
2022/12/23 09:03:20;;;;;;;32.50;12.75;;;10.60;99.90;;;;;;5032863;28;20025;-78
2022/12/23 09:05:45;;;;;;;30.00;12.85;;;10.60;99.90;;;;;;5032578;28;20459;-78
2022/12/23 09:08:12;;;;;;;30.67;13.38;;;10.70;99.90;;;;;;5033150;28;20029;-79
2022/12/23 09:10:42;;;;;;;30.00;12.07;;;10.60;99.90;;;;;;5032636;28;20187;-78
2022/12/23 09:13:12;;;;;;;39.08;16.25;;;10.80;99.90;;;;;;5032406;28;20744;-77
2022/12/23 09:15:44;;;;;;;29.52;13.07;;;10.70;99.90;;;;;;5031612;28;20041;-78
2022/12/23 09:18:11;;;;;;;29.58;12.95;;;10.60;99.90;;;;;;5032249;28;20043;-78
2022/12/23 09:20:37;;;;;;;31.10;13.40;;;10.60;99.90;;;;;;5031863;28;20022;-78
2022/12/23 09:23:04;;;;;;;34.78;15.05;;;10.60;99.90;;;;;;5032858;28;20076;-78
2022/12/23 09:25:31;;;;;;;31.95;13.20;;;10.70;99.90;;;;;;5031552;28;20464;-78
2022/12/23 09:27:56;;;;;;;33.97;13.98;;;10.70;99.90;;;;;;5031446;28;20029;-78
2022/12/23 09:30:23;;;;;;;34.42;14.88;;;10.70;99.90;;;;;;5031715;28;20026;-78
2022/12/23 09:32:49;;;;;;;31.35;13.68;;;10.80;99.90;;;;;;5030608;28;20022;-78
2022/12/23 09:35:15;;;;;;;32.95;13.55;;;10.70;99.90;;;;;;5032659;28;20033;-78
2022/12/23 09:37:40;;;;;;;32.60;14.40;;;10.70;99.90;;;;;;5031700;28;20033;-77
2022/12/23 09:40:10;;;;;;;29.88;13.77;;;10.70;99.90;;;;;;5030910;28;20068;-79
2022/12/23 09:43:13;;;;;;;39.72;15.65;;;10.70;99.90;;;;;;5033848;28;20026;-78
2022/12/23 09:46:16;;;;;;;35.08;14.77;;;10.50;99.90;;;;;;5030784;28;20034;-78
2022/12/23 09:49:07;;;;;;;40.25;18.20;;;10.60;99.90;;;;;;5031682;28;20025;-78
2022/12/23 09:51:33;;;;;;;36.72;15.57;;;10.80;99.90;;;;;;5031711;28;20034;-78
2022/12/23 09:54:23;;;;;;;35.88;14.57;;;10.70;99.90;;;;;;5031742;28;20109;-77
2022/12/23 09:57:03;;;;;;;31.33;13.90;;;10.80;99.90;;;;;;5030963;28;20025;-78
2022/12/23 09:59:52;;;;;;;30.55;12.85;;;10.90;99.90;;;;;;5031974;28;20032;-77
2022/12/23 10:02:34;;;;;;;30.33;14.13;;;10.90;99.90;;;;;;5032179;28;20042;-79
2022/12/23 10:05:25;;;;;;;29.55;12.82;;;10.90;99.90;;;;;;5031824;28;20037;-78
2022/12/23 10:07:56;;;;;;;29.90;13.25;;;10.80;99.90;;;;;;5030949;28;20033;-79
2022/12/23 10:10:43;;;;;;;30.42;13.35;;;10.90;99.90;;;;;;5031550;28;20064;-77
2022/12/23 10:13:42;;;;;;;30.40;13.15;;;11.00;99.90;;;;;;5031134;28;20063;-79
2022/12/23 10:16:28;;;;;;;31.73;12.85;;;10.90;99.90;;;;;;5031002;28;20486;-79
2022/12/23 10:19:07;;;;;;;33.38;13.57;;;10.90;99.90;;;;;;5029668;28;20033;-78
2022/12/23 10:21:42;;;;;;;29.27;13.13;;;10.90;99.90;;;;;;5031171;28;20033;-78
2022/12/23 10:24:20;;;;;;;31.33;13.52;;;10.90;99.90;;;;;;5030172;28;20049;-78
2022/12/23 10:26:55;;;;;;;31.83;14.30;;;11.00;99.90;;;;;;5031027;28;20372;-77
2022/12/23 10:29:28;;;;;;;29.25;13.13;;;10.90;99.90;;;;;;5031418;28;20025;-78
2022/12/23 10:32:01;;;;;;;32.22;13.75;;;10.90;99.90;;;;;;5029471;28;20112;-77
2022/12/23 10:34:39;;;;;;;33.40;14.20;;;10.80;99.90;;;;;;5030845;28;20137;-79
2022/12/23 10:37:17;;;;;;;31.27;13.73;;;10.80;99.90;;;;;;5031115;28;20068;-76
2022/12/23 10:40:15;;;;;;;31.70;14.70;;;10.60;99.90;;;;;;5030959;28;20367;-77
2022/12/23 10:42:53;;;;;;;31.35;14.02;;;10.70;99.90;;;;;;5030504;28;20033;-78
2022/12/23 10:45:47;;;;;;;28.25;13.35;;;10.70;99.90;;;;;;5030640;28;20030;-78
2022/12/23 10:48:31;;;;;;;31.17;13.55;;;10.80;99.90;;;;;;5030539;28;20104;-77
2022/12/23 10:51:14;;;;;;;31.70;14.35;;;10.90;99.90;;;;;;5030585;28;20029;-79
2022/12/23 10:53:49;;;;;;;33.58;13.65;;;10.90;99.90;;;;;;5030780;28;20028;-77
2022/12/23 10:56:15;;;;;;;33.63;13.73;;;10.90;99.90;;;;;;5031118;28;20025;-78
2022/12/23 10:58:44;;;;;;;31.35;13.77;;;11.00;99.90;;;;;;5029590;28;20353;-78
2022/12/23 11:01:14;;;;;;;31.27;13.98;;;11.00;99.90;;;;;;5030623;28;20030;-78
2022/12/23 11:03:55;;;;;;;32.10;14.05;;;11.00;99.90;;;;;;5029692;28;20172;-78
2022/12/23 11:06:21;;;;;;;35.53;14.38;;;11.00;99.90;;;;;;5029661;28;20033;-78
2022/12/23 11:08:47;;;;;;;32.30;14.40;;;11.00;99.90;;;;;;5029767;28;20036;-79
2022/12/23 11:11:13;;;;;;;31.77;14.35;;;11.10;99.90;;;;;;5031838;28;20025;-77
2022/12/23 11:13:40;;;;;;;34.42;15.32;;;11.20;99.90;;;;;;5031670;28;20458;-77
2022/12/23 11:16:21;;;;;;;36.63;15.82;;;11.00;99.90;;;;;;5032017;28;20053;-78
2022/12/23 11:18:59;;;;;;;32.17;14.73;;;10.90;99.90;;;;;;5031128;28;20049;-78
2022/12/23 11:21:27;;;;;;;34.17;15.40;;;10.80;99.90;;;;;;5030791;28;20033;-79
2022/12/23 11:24:06;;;;;;;30.73;14.60;;;10.80;99.90;;;;;;5029847;28;20074;-79
2022/12/23 11:26:32;;;;;;;32.22;14.82;;;10.80;99.90;;;;;;5030474;28;20435;-77
2022/12/23 11:29:04;;;;;;;35.00;15.30;;;10.80;99.90;;;;;;5031290;28;20040;-79
2022/12/23 11:31:34;;;;;;;32.55;13.93;;;10.80;99.90;;;;;;5030353;28;20041;-80
2022/12/23 11:34:16;;;;;;;33.55;15.38;;;10.80;99.90;;;;;;5030417;28;20130;-79
2022/12/23 11:36:42;;;;;;;28.75;14.18;;;10.80;99.90;;;;;;5029299;28;20087;-79
2022/12/23 11:39:17;;;;;;;33.65;14.45;;;10.70;99.90;;;;;;5030385;28;20493;-79
2022/12/23 11:41:49;;;;;;;32.10;13.63;;;10.80;99.90;;;;;;5029460;28;20037;-79
2022/12/23 11:44:41;;;;;;;34.20;14.77;;;10.70;99.90;;;;;;5030769;28;20046;-79
2022/12/23 11:47:21;;;;;;;36.67;14.75;;;10.70;99.90;;;;;;5030426;28;20041;-79
2022/12/23 11:49:50;;;;;;;36.63;16.38;;;10.70;99.90;;;;;;5030826;28;20418;-80
2022/12/23 11:52:20;;;;;;;31.48;13.95;;;10.70;99.90;;;;;;5030980;28;20121;-76
2022/12/23 11:54:53;;;;;;;34.38;15.10;;;10.70;99.90;;;;;;5032293;28;20541;-80
2022/12/23 11:57:29;;;;;;;34.63;14.30;;;10.90;99.90;;;;;;5033762;28;20038;-79
2022/12/23 11:59:59;;;;;;;33.33;14.07;;;10.80;99.90;;;;;;5034846;28;20447;-78
2022/12/23 12:02:46;;;;;;;30.48;13.60;;;10.70;99.90;;;;;;5035517;28;20044;-77
2022/12/23 12:05:14;;;;;;;33.97;12.73;;;10.70;99.90;;;;;;5033438;28;20092;-78
2022/12/23 12:07:44;;;;;;;29.35;12.25;;;10.80;99.90;;;;;;5032835;28;20034;-79
2022/12/23 12:10:21;;;;;;;30.77;13.70;;;10.90;99.90;;;;;;5032721;28;20040;-79
2022/12/23 12:12:53;;;;;;;31.08;14.05;;;10.90;99.90;;;;;;5033803;28;20038;-79
2022/12/23 12:15:43;;;;;;;27.60;12.05;;;11.00;99.90;;;;;;5033598;28;20030;-79
2022/12/23 12:18:15;;;;;;;29.33;12.55;;;10.90;99.90;;;;;;5030616;28;20045;-79
2022/12/23 12:20:46;;;;;;;23.02;11.27;;;10.90;99.90;;;;;;5032501;28;20030;-78
2022/12/23 12:23:49;;;;;;;23.00;11.95;;;11.00;99.90;;;;;;5034426;28;20033;-79
2022/12/23 12:26:26;;;;;;;24.80;11.25;;;11.00;99.90;;;;;;5032307;28;20107;-79
2022/12/23 12:29:27;;;;;;;27.30;12.35;;;11.00;99.90;;;;;;5032330;28;20025;-78
2022/12/23 12:31:58;;;;;;;28.50;11.88;;;11.10;99.90;;;;;;5031972;28;20121;-78
2022/12/23 12:34:55;;;;;;;30.55;12.25;;;11.10;99.90;;;;;;5033420;28;20463;-78
2022/12/23 12:37:45;;;;;;;30.88;13.20;;;11.10;99.90;;;;;;5032288;28;20168;-79
2022/12/23 12:40:39;;;;;;;30.75;13.35;;;11.00;99.90;;;;;;5033025;28;20044;-80
2022/12/23 12:43:26;;;;;;;28.63;12.93;;;11.00;99.90;;;;;;5032000;28;20057;-78
2022/12/23 12:46:17;;;;;;;27.25;13.60;;;11.00;99.90;;;;;;5033814;28;20272;-78
2022/12/23 12:48:48;;;;;;;24.48;11.90;;;11.10;99.90;;;;;;5032583;28;20117;-79
2022/12/23 12:51:39;;;;;;;30.50;13.88;;;11.20;99.90;;;;;;5032355;28;20029;-80
2022/12/23 12:54:13;;;;;;;27.88;13.60;;;11.20;99.90;;;;;;5029127;28;20031;-79
2022/12/23 12:56:49;;;;;;;26.13;12.32;;;11.30;99.90;;;;;;5033475;28;20021;-78
2022/12/23 12:59:19;;;;;;;27.40;12.18;;;11.30;99.90;;;;;;5033380;28;20044;-78
2022/12/23 13:02:20;;;;;;;26.95;13.27;;;11.20;99.90;;;;;;5033463;28;20033;-78
2022/12/23 13:05:06;;;;;;;24.67;12.90;;;11.20;99.90;;;;;;5025921;28;20041;-77
2022/12/23 13:07:32;;;;;;;25.52;12.10;;;11.20;99.90;;;;;;5034317;28;20033;-78
2022/12/23 13:10:32;;;;;;;24.10;11.57;;;11.20;99.90;;;;;;5033578;28;20502;-78
2022/12/23 13:13:04;;;;;;;25.10;12.55;;;11.10;99.90;;;;;;5032121;28;20479;-77
2022/12/23 13:15:37;;;;;;;24.15;12.63;;;11.10;99.90;;;;;;5032878;28;20037;-79
2022/12/23 13:18:24;;;;;;;25.45;12.10;;;11.10;99.90;;;;;;5031795;28;20052;-80
2022/12/23 13:21:13;;;;;;;21.98;11.73;;;11.10;99.90;;;;;;5032579;28;20025;-78
2022/12/23 13:24:26;;;;;;;27.33;12.90;;;11.00;99.90;;;;;;5031570;28;20025;-79